Time;durP1;ratioP1;P1;durP2;ratioP2;P2;SDS_P1;SDS_P2;PMS_P1;PMS_P2;Temp;Humidity;BMP_temperature;BMP_pressure;BME280_temperature;BME280_humidity;BME280_pressure;Samples;Min_cycle;Max_cycle;Signal;HPM_P1;HPM_P2
2024/01/30 00:02:13;;;;;;;32.47;15.60;;;;;;;;;;4957156;28;20289;-75
2024/01/30 00:04:39;;;;;;;30.33;15.38;;;;;;;;;;4941421;28;20554;-75
2024/01/30 00:07:05;;;;;;;27.77;14.50;;;;;;;;;;4957029;28;20054;-74
2024/01/30 00:09:31;;;;;;;34.88;16.40;;;;;;;;;;4957715;28;20101;-74
2024/01/30 00:11:57;;;;;;;34.38;15.88;;;;;;;;;;4941138;28;20051;-74
2024/01/30 00:14:23;;;;;;;32.75;15.77;;;;;;;;;;4957455;28;20047;-75
2024/01/30 00:16:49;;;;;;;35.80;16.00;;;;;;;;;;4957650;28;20559;-75
2024/01/30 00:19:15;;;;;;;32.55;16.10;;;;;;;;;;4956957;28;20055;-75
2024/01/30 00:21:42;;;;;;;31.10;15.18;;;;;;;;;;4974043;28;20051;-75
2024/01/30 00:24:08;;;;;;;31.60;15.00;;;;;;;;;;4956874;28;20058;-75
2024/01/30 00:26:34;;;;;;;33.83;15.13;;;;;;;;;;4974227;28;20047;-74
2024/01/30 00:29:00;;;;;;;29.17;14.45;;;;;;;;;;4957088;28;20051;-76
2024/01/30 00:31:26;;;;;;;25.60;14.20;;;;;;;;;;4974069;28;20065;-75
2024/01/30 00:33:52;;;;;;;27.92;14.30;;;;;;;;;;4974160;28;20106;-74
2024/01/30 00:36:18;;;;;;;33.78;15.27;;;;;;;;;;4941485;28;20046;-74
2024/01/30 00:38:45;;;;;;;30.10;14.82;;;;;;;;;;4956990;28;20137;-75
2024/01/30 00:41:11;;;;;;;30.77;14.60;;;;;;;;;;4960746;28;20065;-75
2024/01/30 00:43:37;;;;;;;28.27;14.35;;;;;;;;;;4961336;28;20476;-74
2024/01/30 00:46:03;;;;;;;32.22;14.80;;;;;;;;;;4945444;28;20138;-75
2024/01/30 00:48:29;;;;;;;31.67;13.85;;;;;;;;;;4961335;28;20137;-75
2024/01/30 00:50:56;;;;;;;32.70;14.85;;;;;;;;;;4961007;28;20448;-75
2024/01/30 00:53:22;;;;;;;33.70;15.95;;;;;;;;;;4977578;28;20050;-74
2024/01/30 00:55:48;;;;;;;32.95;15.20;;;;;;;;;;4944711;28;20092;-75
2024/01/30 00:58:14;;;;;;;31.52;15.93;;;;;;;;;;4960616;28;20042;-76
2024/01/30 01:00:40;;;;;;;31.50;14.63;;;;;;;;;;4960536;28;20077;-76
2024/01/30 01:03:06;;;;;;;35.88;15.40;;;;;;;;;;4945034;28;20141;-75
2024/01/30 01:05:32;;;;;;;30.75;14.35;;;;;;;;;;4977510;28;20101;-75
2024/01/30 01:07:58;;;;;;;27.75;13.85;;;;;;;;;;4960686;28;20055;-75
2024/01/30 01:10:24;;;;;;;32.45;14.88;;;;;;;;;;4960177;28;20530;-75
2024/01/30 01:12:50;;;;;;;31.20;15.07;;;;;;;;;;4959974;28;20047;-75
2024/01/30 01:15:16;;;;;;;33.05;14.57;;;;;;;;;;4944324;28;20106;-75
2024/01/30 01:17:42;;;;;;;29.75;14.20;;;;;;;;;;4960530;28;20431;-74
2024/01/30 01:20:10;;;;;;;34.88;14.85;;;;;;;;;;4977012;28;20496;-75
2024/01/30 01:22:38;;;;;;;28.63;14.48;;;;;;;;;;4960411;28;20098;-75
2024/01/30 01:25:06;;;;;;;34.33;14.88;;;;;;;;;;4977679;28;20411;-75
2024/01/30 01:27:34;;;;;;;34.13;15.32;;;;;;;;;;4959975;28;20488;-75
2024/01/30 01:30:00;;;;;;;;;;;;;;;;;;4977453;28;20174;-74
2024/01/30 01:32:26;;;;;;;33.43;13.87;;;;;;;;;;4960615;28;20017;-76
2024/01/30 01:34:52;;;;;;;33.33;15.32;;;;;;;;;;4977346;28;20186;-74
2024/01/30 01:37:18;;;;;;;32.13;13.82;;;;;;;;;;4959865;28;20047;-75
2024/01/30 01:39:44;;;;;;;33.30;14.10;;;;;;;;;;4944109;28;20182;-76
2024/01/30 01:42:10;;;;;;;29.20;13.90;;;;;;;;;;4976941;28;20047;-75
2024/01/30 01:44:36;;;;;;;31.50;13.73;;;;;;;;;;4943712;28;20061;-75
2024/01/30 01:47:03;;;;;;;30.33;14.70;;;;;;;;;;4976996;28;20526;-75
2024/01/30 01:49:29;;;;;;;29.75;13.73;;;;;;;;;;4959639;28;20055;-75
2024/01/30 01:51:59;;;;;;;27.70;12.85;;;;;;;;;;4976302;28;20051;-75
2024/01/30 01:54:27;;;;;;;28.98;13.65;;;;;;;;;;4959624;28;20050;-76
2024/01/30 01:56:53;;;;;;;30.20;13.75;;;;;;;;;;4943282;28;20053;-74
2024/01/30 01:59:20;;;;;;;25.87;13.10;;;;;;;;;;4959483;28;20089;-75
2024/01/30 02:01:49;;;;;;;27.63;13.82;;;;;;;;;;4960082;28;20357;-75
2024/01/30 02:04:15;;;;;;;28.30;13.55;;;;;;;;;;4959603;28;20547;-75
2024/01/30 02:06:41;;;;;;;25.73;12.47;;;;;;;;;;4977214;28;20042;-76
2024/01/30 02:09:09;;;;;;;28.15;13.52;;;;;;;;;;4959475;28;20043;-75
2024/01/30 02:11:34;;;;;;;;;;;;;;;;;;4976675;28;20050;-74
2024/01/30 02:14:04;;;;;;;30.43;12.50;;;;;;;;;;4977018;28;19922;-74
2024/01/30 02:16:30;;;;;;;27.23;13.07;;;;;;;;;;4959520;28;20046;-74
2024/01/30 02:18:56;;;;;;;26.02;12.88;;;;;;;;;;4976473;28;20518;-76
2024/01/30 02:21:22;;;;;;;25.50;12.63;;;;;;;;;;4944323;28;20062;-75
2024/01/30 02:23:49;;;;;;;29.02;13.05;;;;;;;;;;4978452;28;20439;-75
2024/01/30 02:26:15;;;;;;;24.90;12.95;;;;;;;;;;4978243;28;20138;-75
2024/01/30 02:28:41;;;;;;;25.25;13.60;;;;;;;;;;4960563;28;20496;-75
2024/01/30 02:31:08;;;;;;;25.77;12.73;;;;;;;;;;4944161;28;20094;-75
2024/01/30 02:33:34;;;;;;;24.75;12.75;;;;;;;;;;4959886;28;20053;-75
2024/01/30 02:36:00;;;;;;;23.33;12.32;;;;;;;;;;4959367;28;20051;-75
2024/01/30 02:38:26;;;;;;;28.43;13.37;;;;;;;;;;4977223;28;20055;-75
2024/01/30 02:40:53;;;;;;;27.58;14.48;;;;;;;;;;4960476;28;20050;-75
2024/01/30 02:43:19;;;;;;;25.63;13.32;;;;;;;;;;4958576;28;20061;-74
2024/01/30 02:45:45;;;;;;;25.67;13.63;;;;;;;;;;4943032;28;20415;-74
2024/01/30 02:48:11;;;;;;;26.85;12.65;;;;;;;;;;4943425;28;20110;-74
2024/01/30 02:50:37;;;;;;;25.52;12.45;;;;;;;;;;4958455;28;20078;-75
2024/01/30 02:53:03;;;;;;;26.52;12.57;;;;;;;;;;4975927;28;20089;-74
2024/01/30 02:55:29;;;;;;;21.67;11.90;;;;;;;;;;4975573;28;20487;-75
2024/01/30 02:57:55;;;;;;;24.33;13.23;;;;;;;;;;4943441;28;20051;-75
2024/01/30 03:00:22;;;;;;;24.80;13.07;;;;;;;;;;4958523;28;20447;-75
2024/01/30 03:02:48;;;;;;;26.42;12.80;;;;;;;;;;4974675;28;20050;-75
2024/01/30 03:05:14;;;;;;;24.95;13.27;;;;;;;;;;4942686;28;20105;-75
2024/01/30 03:07:40;;;;;;;30.08;12.88;;;;;;;;;;4942723;28;20106;-74
2024/01/30 03:10:06;;;;;;;29.13;14.65;;;;;;;;;;4942516;28;20605;-74
2024/01/30 03:12:32;;;;;;;30.27;13.65;;;;;;;;;;4958171;28;20046;-74
2024/01/30 03:14:58;;;;;;;26.38;13.77;;;;;;;;;;4975326;28;20506;-74
2024/01/30 03:17:24;;;;;;;26.58;13.35;;;;;;;;;;4975280;28;20047;-74
2024/01/30 03:19:51;;;;;;;29.17;12.75;;;;;;;;;;4942277;28;20393;-74
2024/01/30 03:22:17;;;;;;;26.83;13.47;;;;;;;;;;4958409;28;20069;-75
2024/01/30 03:24:43;;;;;;;24.88;13.63;;;;;;;;;;4958027;28;20050;-73
2024/01/30 03:27:09;;;;;;;27.60;13.20;;;;;;;;;;4958632;28;20375;-74
2024/01/30 03:29:35;;;;;;;25.45;12.63;;;;;;;;;;4957926;28;20055;-74
2024/01/30 03:32:03;;;;;;;25.98;13.50;;;;;;;;;;4957919;28;20075;-75
2024/01/30 03:34:29;;;;;;;27.42;13.02;;;;;;;;;;4942509;28;20367;-74
2024/01/30 03:36:55;;;;;;;27.08;12.98;;;;;;;;;;4941953;28;20058;-75
2024/01/30 03:39:22;;;;;;;24.75;12.23;;;;;;;;;;4958135;28;20548;-74
2024/01/30 03:41:48;;;;;;;24.05;12.63;;;;;;;;;;4974799;28;20407;-74
2024/01/30 03:44:14;;;;;;;24.67;12.82;;;;;;;;;;4974837;28;20125;-75
2024/01/30 03:46:40;;;;;;;22.33;11.32;;;;;;;;;;4957790;28;20047;-74
2024/01/30 03:49:06;;;;;;;25.10;12.13;;;;;;;;;;4957749;28;20058;-75
2024/01/30 03:51:32;;;;;;;24.35;11.77;;;;;;;;;;4942626;28;20133;-74
2024/01/30 03:53:58;;;;;;;25.08;12.60;;;;;;;;;;4958625;28;20058;-75
2024/01/30 03:56:25;;;;;;;26.40;11.70;;;;;;;;;;4957624;28;20050;-75
2024/01/30 03:58:51;;;;;;;25.02;12.63;;;;;;;;;;4957578;28;20046;-74
2024/01/30 04:01:18;;;;;;;25.02;12.65;;;;;;;;;;4957607;28;20094;-74
2024/01/30 04:03:44;;;;;;;24.65;12.07;;;;;;;;;;4975339;28;20050;-74
2024/01/30 04:06:10;;;;;;;21.10;11.02;;;;;;;;;;4957916;28;20074;-74
2024/01/30 04:08:37;;;;;;;23.08;12.02;;;;;;;;;;4974473;28;20111;-74
2024/01/30 04:11:05;;;;;;;21.80;11.40;;;;;;;;;;4941646;28;20444;-74
2024/01/30 04:13:31;;;;;;;25.95;11.95;;;;;;;;;;4973802;28;20126;-75
2024/01/30 04:15:59;;;;;;;22.33;11.73;;;;;;;;;;4941392;28;20051;-74
2024/01/30 04:18:26;;;;;;;23.15;11.95;;;;;;;;;;4957103;28;20062;-75
2024/01/30 04:20:52;;;;;;;21.58;11.27;;;;;;;;;;4940779;28;20507;-75
2024/01/30 04:23:18;;;;;;;22.77;11.27;;;;;;;;;;4957550;28;20062;-76
2024/01/30 04:25:44;;;;;;;23.35;11.82;;;;;;;;;;4957161;28;20050;-74
2024/01/30 04:28:12;;;;;;;23.25;11.68;;;;;;;;;;4956772;28;20058;-75
2024/01/30 04:30:38;;;;;;;23.92;11.25;;;;;;;;;;4941261;28;20130;-74
2024/01/30 04:33:04;;;;;;;23.40;11.32;;;;;;;;;;4941346;28;20046;-75
2024/01/30 04:35:30;;;;;;;22.10;12.10;;;;;;;;;;4974359;28;20098;-76
2024/01/30 04:37:56;;;;;;;29.63;11.48;;;;;;;;;;4957223;28;20062;-75
2024/01/30 04:40:23;;;;;;;20.45;11.02;;;;;;;;;;4974461;28;20054;-73
2024/01/30 04:42:49;;;;;;;22.80;10.93;;;;;;;;;;4957028;28;20142;-75
2024/01/30 04:45:15;;;;;;;19.35;10.88;;;;;;;;;;4974207;28;20058;-75
2024/01/30 04:47:41;;;;;;;22.75;11.05;;;;;;;;;;4956983;28;20117;-74
2024/01/30 04:50:08;;;;;;;19.27;10.70;;;;;;;;;;4957054;28;20051;-75
2024/01/30 04:52:34;;;;;;;21.25;11.50;;;;;;;;;;4974171;28;20511;-74
2024/01/30 04:55:00;;;;;;;24.85;12.20;;;;;;;;;;4941180;28;20431;-74
2024/01/30 04:57:27;;;;;;;20.63;11.20;;;;;;;;;;4941057;28;20109;-74
2024/01/30 04:59:53;;;;;;;23.55;11.20;;;;;;;;;;4975091;28;20360;-76
2024/01/30 05:02:19;;;;;;;21.23;10.88;;;;;;;;;;4957080;28;20039;-75
2024/01/30 05:04:45;;;;;;;22.13;11.32;;;;;;;;;;4975030;28;20110;-74
2024/01/30 05:07:11;;;;;;;22.08;11.68;;;;;;;;;;4958686;28;20050;-75
2024/01/30 05:09:37;;;;;;;23.00;10.63;;;;;;;;;;4958125;28;20047;-76
2024/01/30 05:12:04;;;;;;;19.75;11.20;;;;;;;;;;4956873;28;20050;-74
2024/01/30 05:14:30;;;;;;;23.30;10.80;;;;;;;;;;4957067;28;20133;-75
2024/01/30 05:16:56;;;;;;;21.33;11.40;;;;;;;;;;4956818;28;20442;-75
2024/01/30 05:19:23;;;;;;;20.13;10.73;;;;;;;;;;4956357;28;20055;-74
2024/01/30 05:21:49;;;;;;;22.80;11.07;;;;;;;;;;4956993;28;20058;-74
2024/01/30 05:24:15;;;;;;;22.75;10.93;;;;;;;;;;4957427;28;20491;-74
2024/01/30 05:26:42;;;;;;;23.13;11.30;;;;;;;;;;4959101;28;20086;-74
2024/01/30 05:29:08;;;;;;;21.45;10.98;;;;;;;;;;4960345;28;20085;-75
2024/01/30 05:31:34;;;;;;;22.45;11.82;;;;;;;;;;4977166;28;20050;-76
2024/01/30 05:34:00;;;;;;;22.80;11.60;;;;;;;;;;4944760;28;20391;-75
2024/01/30 05:36:27;;;;;;;21.95;11.07;;;;;;;;;;4943855;28;20050;-76
2024/01/30 05:38:53;;;;;;;21.23;10.85;;;;;;;;;;4977184;28;20046;-75
2024/01/30 05:41:23;;;;;;;21.83;11.32;;;;;;;;;;4943806;28;20494;-74
2024/01/30 05:43:49;;;;;;;26.73;11.02;;;;;;;;;;4971714;28;20086;-75
2024/01/30 05:46:19;;;;;;;23.75;10.77;;;;;;;;;;4975862;28;20043;-75
2024/01/30 05:48:45;;;;;;;22.25;11.32;;;;;;;;;;4976868;28;20093;-74
2024/01/30 05:51:11;;;;;;;20.58;10.90;;;;;;;;;;4959869;28;20047;-75
2024/01/30 05:53:38;;;;;;;23.73;10.27;;;;;;;;;;4959571;28;20102;-74
2024/01/30 05:56:04;;;;;;;23.83;11.07;;;;;;;;;;4943658;28;20110;-75
2024/01/30 05:58:33;;;;;;;22.58;11.02;;;;;;;;;;4943115;28;20094;-75
2024/01/30 06:00:59;;;;;;;21.33;10.27;;;;;;;;;;4959864;28;20382;-74
2024/01/30 06:03:25;;;;;;;19.42;10.77;;;;;;;;;;4959369;28;20483;-74
2024/01/30 06:05:52;;;;;;;21.70;11.00;;;;;;;;;;4976680;28;20046;-74
2024/01/30 06:08:18;;;;;;;23.50;11.45;;;;;;;;;;4959346;28;20097;-75
2024/01/30 06:10:44;;;;;;;23.53;10.90;;;;;;;;;;4959555;28;20047;-74
2024/01/30 06:13:10;;;;;;;22.27;11.00;;;;;;;;;;4959330;28;20067;-74
2024/01/30 06:15:36;;;;;;;23.20;10.30;;;;;;;;;;4960442;28;20074;-74
2024/01/30 06:18:02;;;;;;;23.90;11.90;;;;;;;;;;4944245;28;20055;-74
2024/01/30 06:20:28;;;;;;;20.23;10.88;;;;;;;;;;4945961;28;20051;-74
2024/01/30 06:22:54;;;;;;;23.83;11.25;;;;;;;;;;4978153;28;20126;-74
2024/01/30 06:25:20;;;;;;;20.70;11.00;;;;;;;;;;4960763;28;20046;-73
2024/01/30 06:27:47;;;;;;;21.35;10.57;;;;;;;;;;4977652;28;20047;-74
2024/01/30 06:30:13;;;;;;;20.10;9.95;;;;;;;;;;4944032;28;20078;-74
2024/01/30 06:32:39;;;;;;;24.30;10.47;;;;;;;;;;4959594;28;20050;-74
2024/01/30 06:35:06;;;;;;;23.33;10.60;;;;;;;;;;4976507;28;20361;-73
2024/01/30 06:37:32;;;;;;;21.58;10.77;;;;;;;;;;4943629;28;20365;-74
2024/01/30 06:39:58;;;;;;;21.13;10.88;;;;;;;;;;4958733;28;20106;-75
2024/01/30 06:42:24;;;;;;;22.70;10.65;;;;;;;;;;4958858;28;20447;-75
2024/01/30 06:44:50;;;;;;;23.45;10.50;;;;;;;;;;4958476;28;20062;-74
2024/01/30 06:47:16;;;;;;;20.17;10.48;;;;;;;;;;4975878;28;20062;-74
2024/01/30 06:49:43;;;;;;;22.65;11.05;;;;;;;;;;4943022;28;20114;-74
2024/01/30 06:52:10;;;;;;;20.60;10.38;;;;;;;;;;4958312;28;20054;-75
2024/01/30 06:54:36;;;;;;;22.52;11.23;;;;;;;;;;4958656;28;20058;-74
2024/01/30 06:57:02;;;;;;;20.50;10.30;;;;;;;;;;4959235;28;20467;-74
2024/01/30 06:59:29;;;;;;;19.53;10.73;;;;;;;;;;4958520;28;20051;-73
2024/01/30 07:01:55;;;;;;;22.25;9.52;;;;;;;;;;4958458;28;20295;-74
2024/01/30 07:04:21;;;;;;;19.77;10.07;;;;;;;;;;4975069;28;20054;-75
2024/01/30 07:06:47;;;;;;;21.33;9.63;;;;;;;;;;4958344;28;20053;-74
2024/01/30 07:09:13;;;;;;;19.60;9.45;;;;;;;;;;4958074;28;20050;-74
2024/01/30 07:11:39;;;;;;;20.45;9.95;;;;;;;;;;4975777;28;20046;-73
2024/01/30 07:14:06;;;;;;;18.20;9.68;;;;;;;;;;4958212;28;20055;-73
2024/01/30 07:16:32;;;;;;;19.60;9.73;;;;;;;;;;4958008;28;20057;-73
2024/01/30 07:18:58;;;;;;;20.50;10.10;;;;;;;;;;4957918;28;20109;-74
2024/01/30 07:21:28;;;;;;;18.38;9.70;;;;;;;;;;4942616;28;20058;-74
2024/01/30 07:23:55;;;;;;;18.55;9.65;;;;;;;;;;4942809;28;20059;-74
2024/01/30 07:26:22;;;;;;;19.10;9.68;;;;;;;;;;4958523;28;20046;-74
2024/01/30 07:28:48;;;;;;;18.77;9.63;;;;;;;;;;4976003;28;20054;-74
2024/01/30 07:31:14;;;;;;;20.30;10.60;;;;;;;;;;4959727;28;20050;-74
2024/01/30 07:33:40;;;;;;;20.95;10.23;;;;;;;;;;4975513;28;20050;-74
2024/01/30 07:36:06;;;;;;;20.45;9.50;;;;;;;;;;4942105;28;20133;-74
2024/01/30 07:38:32;;;;;;;20.35;9.82;;;;;;;;;;4941928;28;20057;-74
2024/01/30 07:40:58;;;;;;;19.80;10.13;;;;;;;;;;4957850;28;20050;-74
2024/01/30 07:43:24;;;;;;;21.77;10.23;;;;;;;;;;4957663;28;20053;-74
2024/01/30 07:45:50;;;;;;;17.70;9.65;;;;;;;;;;4957652;28;20086;-74
2024/01/30 07:48:17;;;;;;;18.10;10.18;;;;;;;;;;4957216;28;20143;-74
2024/01/30 07:50:43;;;;;;;20.73;9.83;;;;;;;;;;4957765;28;20051;-74
2024/01/30 07:53:09;;;;;;;19.73;10.13;;;;;;;;;;4957581;28;20043;-75
2024/01/30 07:55:35;;;;;;;18.58;10.05;;;;;;;;;;4941689;28;20047;-73
2024/01/30 07:58:01;;;;;;;17.55;9.07;;;;;;;;;;4941718;28;20049;-75
2024/01/30 08:00:28;;;;;;;19.50;9.32;;;;;;;;;;4957789;28;20079;-74
2024/01/30 08:02:55;;;;;;;17.33;9.27;;;;;;;;;;4957935;28;20089;-74
2024/01/30 08:05:25;;;;;;;18.60;9.32;;;;;;;;;;4975323;28;20053;-75
2024/01/30 08:07:51;;;;;;;18.65;8.88;;;;;;;;;;4974708;28;20062;-73
2024/01/30 08:10:20;;;;;;;16.52;8.52;;;;;;;;;;4957385;28;20141;-74
2024/01/30 08:12:46;;;;;;;15.85;7.65;;;;;;;;;;4957196;28;20043;-74
2024/01/30 08:15:13;;;;;;;16.30;8.02;;;;;;;;;;4974410;28;20042;-75
2024/01/30 08:17:39;;;;;;;19.10;8.43;;;;;;;;;;4975249;28;20403;-74
2024/01/30 08:20:06;;;;;;;20.40;8.63;;;;;;;;;;4957603;28;20058;-76
2024/01/30 08:22:32;;;;;;;19.63;8.75;;;;;;;;;;4941463;28;20055;-74
2024/01/30 08:24:58;;;;;;;18.83;8.43;;;;;;;;;;4957493;28;20051;-74
2024/01/30 08:27:24;;;;;;;18.92;8.48;;;;;;;;;;4941263;28;20054;-74
2024/01/30 08:29:50;;;;;;;19.00;8.50;;;;;;;;;;4957140;28;20047;-75
2024/01/30 08:32:16;;;;;;;13.90;7.97;;;;;;;;;;4957099;28;20039;-75
2024/01/30 08:34:42;;;;;;;18.10;7.75;;;;;;;;;;4957331;28;20054;-73
2024/01/30 08:37:08;;;;;;;19.30;8.32;;;;;;;;;;4957721;28;20145;-73
2024/01/30 08:39:35;;;;;;;19.15;8.13;;;;;;;;;;4957506;28;20069;-74
2024/01/30 08:42:01;;;;;;;15.75;8.23;;;;;;;;;;4958493;28;20051;-74
2024/01/30 08:44:27;;;;;;;14.13;7.70;;;;;;;;;;4957292;28;20054;-74
2024/01/30 08:46:53;;;;;;;19.15;8.00;;;;;;;;;;4956976;28;20042;-74
2024/01/30 08:49:20;;;;;;;17.25;8.32;;;;;;;;;;4941081;28;20405;-73
2024/01/30 08:51:47;;;;;;;;;;;;;;;;;;4957424;28;20042;-73
2024/01/30 08:54:13;;;;;;;17.33;9.57;;;;;;;;;;4957875;28;19945;-75
2024/01/30 08:56:39;;;;;;;14.77;7.88;;;;;;;;;;4974156;28;20050;-76
2024/01/30 08:59:05;;;;;;;18.98;9.23;;;;;;;;;;4957136;28;20054;-76
2024/01/30 09:01:31;;;;;;;15.48;7.70;;;;;;;;;;4959936;28;20094;-74
2024/01/30 09:03:57;;;;;;;17.67;7.90;;;;;;;;;;4978340;28;20123;-74
2024/01/30 09:06:28;;;;;;;14.48;7.82;;;;;;;;;;4960602;28;20190;-76
2024/01/30 09:08:54;;;;;;;17.35;7.63;;;;;;;;;;4960950;28;20094;-76
2024/01/30 09:11:20;;;;;;;18.42;7.63;;;;;;;;;;4960250;28;20054;-75
2024/01/30 09:13:46;;;;;;;13.75;7.32;;;;;;;;;;4960575;28;20051;-75
2024/01/30 09:16:12;;;;;;;13.95;7.72;;;;;;;;;;4960469;28;20471;-77
2024/01/30 09:18:39;;;;;;;15.43;8.10;;;;;;;;;;4977591;28;20102;-76
2024/01/30 09:21:05;;;;;;;15.90;7.53;;;;;;;;;;4959964;28;20141;-76
2024/01/30 09:23:31;;;;;;;16.88;7.93;;;;;;;;;;4960125;28;20289;-76
2024/01/30 09:25:57;;;;;;;16.08;7.80;;;;;;;;;;4960280;28;20050;-76
2024/01/30 09:28:23;;;;;;;15.30;7.75;;;;;;;;;;4959713;28;20554;-75
2024/01/30 09:30:49;;;;;;;14.15;7.85;;;;;;;;;;4960068;28;20055;-75
2024/01/30 09:33:16;;;;;;;15.32;8.20;;;;;;;;;;4960116;28;20611;-74
2024/01/30 09:35:42;;;;;;;19.65;7.95;;;;;;;;;;4944324;28;20047;-73
2024/01/30 09:38:08;;;;;;;15.48;8.50;;;;;;;;;;4960337;28;20051;-74
2024/01/30 09:40:34;;;;;;;18.67;8.90;;;;;;;;;;4960104;28;20090;-74
2024/01/30 09:43:00;;;;;;;14.50;6.78;;;;;;;;;;4977782;28;20098;-74
2024/01/30 09:45:26;;;;;;;18.35;8.02;;;;;;;;;;4945780;28;20051;-73
2024/01/30 09:47:53;;;;;;;13.85;7.70;;;;;;;;;;4946075;28;20073;-75
2024/01/30 09:50:19;;;;;;;14.98;8.15;;;;;;;;;;4946829;28;20481;-74
2024/01/30 09:52:46;;;;;;;15.27;7.72;;;;;;;;;;4978389;28;20051;-74
2024/01/30 09:55:12;;;;;;;17.17;7.13;;;;;;;;;;4960774;28;20383;-75
2024/01/30 09:57:39;;;;;;;14.80;6.67;;;;;;;;;;4959894;28;20320;-74
2024/01/30 10:00:08;;;;;;;14.75;7.72;;;;;;;;;;4959827;28;20406;-74
2024/01/30 10:02:34;;;;;;;19.95;8.20;;;;;;;;;;4976790;28;20051;-74
2024/01/30 10:05:01;;;;;;;15.93;7.65;;;;;;;;;;4959546;28;20130;-73
2024/01/30 10:07:27;;;;;;;15.38;7.35;;;;;;;;;;4959857;28;20134;-75
2024/01/30 10:09:55;;;;;;;17.67;8.13;;;;;;;;;;4959711;28;20054;-74
2024/01/30 10:12:21;;;;;;;14.90;8.02;;;;;;;;;;4959599;28;20086;-73
2024/01/30 10:14:47;;;;;;;17.42;8.05;;;;;;;;;;4943496;28;20085;-75
2024/01/30 10:17:14;;;;;;;15.23;7.60;;;;;;;;;;4943972;28;20134;-73
2024/01/30 10:19:40;;;;;;;13.30;7.20;;;;;;;;;;4960306;28;20062;-74
2024/01/30 10:22:07;;;;;;;21.95;8.15;;;;;;;;;;4959403;28;20090;-73
2024/01/30 10:24:36;;;;;;;13.55;7.30;;;;;;;;;;4960687;28;20053;-72
2024/01/30 10:27:03;;;;;;;17.33;7.20;;;;;;;;;;4960888;28;20055;-73
2024/01/30 10:29:29;;;;;;;14.25;7.32;;;;;;;;;;4961682;28;20046;-74
2024/01/30 10:31:59;;;;;;;13.67;7.40;;;;;;;;;;4960879;28;20054;-73
2024/01/30 10:34:26;;;;;;;17.27;7.80;;;;;;;;;;4929271;28;20298;-74
2024/01/30 10:36:55;;;;;;;18.30;7.75;;;;;;;;;;4960897;28;20398;-74
2024/01/30 10:39:21;;;;;;;20.23;7.57;;;;;;;;;;4960847;28;20102;-74
2024/01/30 10:41:48;;;;;;;14.32;7.28;;;;;;;;;;4960486;28;20395;-75
2024/01/30 10:44:18;;;;;;;15.60;7.57;;;;;;;;;;4977192;28;20047;-74
2024/01/30 10:46:45;;;;;;;18.63;8.05;;;;;;;;;;4959031;28;20468;-75
2024/01/30 10:49:13;;;;;;;14.63;7.40;;;;;;;;;;4958729;28;20047;-74
2024/01/30 10:51:39;;;;;;;;;;;;;;;;;;4959641;28;20123;-74
2024/01/30 10:54:05;;;;;;;15.75;7.20;;;;;;;;;;4942462;28;19926;-73
2024/01/30 10:56:33;;;;;;;15.25;7.63;;;;;;;;;;4958515;28;20054;-75
2024/01/30 10:58:59;;;;;;;17.17;7.43;;;;;;;;;;4960256;28;20042;-73
2024/01/30 11:01:26;;;;;;;14.00;7.18;;;;;;;;;;4945486;28;20054;-74
2024/01/30 11:03:53;;;;;;;17.10;7.70;;;;;;;;;;4943691;28;20150;-73
2024/01/30 11:06:22;;;;;;;17.17;7.13;;;;;;;;;;4975673;28;20051;-72
2024/01/30 11:09:09;;;;;;;16.63;7.63;;;;;;;;;;4958424;28;20137;-73
2024/01/30 11:11:48;;;;;;;19.85;7.60;;;;;;;;;;4975575;28;20054;-73
2024/01/30 11:14:14;;;;;;;15.52;8.15;;;;;;;;;;4958169;28;20050;-73
2024/01/30 11:16:41;;;;;;;15.68;7.55;;;;;;;;;;4958065;28;20511;-74
2024/01/30 11:19:12;;;;;;;17.58;7.78;;;;;;;;;;4958386;28;20058;-73
2024/01/30 11:21:44;;;;;;;16.30;7.25;;;;;;;;;;4958319;28;20063;-74
2024/01/30 11:24:11;;;;;;;14.75;7.75;;;;;;;;;;4974580;28;20083;-73
2024/01/30 11:26:37;;;;;;;17.15;8.52;;;;;;;;;;4958161;28;20050;-75
2024/01/30 11:29:09;;;;;;;16.20;8.25;;;;;;;;;;4957832;28;20513;-74
2024/01/30 11:31:35;;;;;;;16.50;8.20;;;;;;;;;;4975577;28;20089;-75
2024/01/30 11:34:01;;;;;;;16.33;8.32;;;;;;;;;;4958602;28;20095;-74
2024/01/30 11:36:28;;;;;;;15.55;7.35;;;;;;;;;;4958074;28;20400;-74
2024/01/30 11:38:55;;;;;;;15.17;8.40;;;;;;;;;;4958216;28;20042;-76
2024/01/30 11:41:22;;;;;;;18.65;9.07;;;;;;;;;;4957828;28;20076;-75
2024/01/30 11:43:52;;;;;;;17.90;8.25;;;;;;;;;;4974846;28;20411;-75
2024/01/30 11:46:18;;;;;;;18.77;8.15;;;;;;;;;;4958518;28;20050;-74
2024/01/30 11:48:45;;;;;;;17.48;8.23;;;;;;;;;;4957849;28;20055;-73
2024/01/30 11:51:12;;;;;;;17.52;7.90;;;;;;;;;;4942010;28;20372;-74
2024/01/30 11:53:38;;;;;;;14.25;7.80;;;;;;;;;;4957537;28;20042;-74
2024/01/30 11:56:07;;;;;;;17.45;8.40;;;;;;;;;;4941422;28;20514;-74
2024/01/30 11:58:33;;;;;;;15.82;8.55;;;;;;;;;;4958165;28;20050;-74
2024/01/30 12:01:00;;;;;;;18.98;8.27;;;;;;;;;;4958451;28;20379;-74
2024/01/30 12:03:26;;;;;;;16.75;8.13;;;;;;;;;;4957585;28;20054;-74
2024/01/30 12:05:56;;;;;;;17.03;8.27;;;;;;;;;;4958174;28;20043;-74
2024/01/30 12:08:22;;;;;;;14.10;7.63;;;;;;;;;;4974543;28;20042;-73
2024/01/30 12:10:56;;;;;;;17.38;8.23;;;;;;;;;;4941789;28;20043;-73
2024/01/30 12:13:22;;;;;;;20.10;9.18;;;;;;;;;;4958233;28;20371;-73
2024/01/30 12:15:48;;;;;;;16.13;8.43;;;;;;;;;;4974851;28;20416;-74
2024/01/30 12:18:14;;;;;;;13.55;7.55;;;;;;;;;;4975432;28;20055;-73
2024/01/30 12:20:40;;;;;;;14.88;7.85;;;;;;;;;;4974662;28;20422;-76
2024/01/30 12:23:06;;;;;;;17.98;8.32;;;;;;;;;;4957878;28;20089;-73
2024/01/30 12:25:33;;;;;;;18.13;8.40;;;;;;;;;;4957559;28;20097;-74
2024/01/30 12:27:59;;;;;;;16.20;7.82;;;;;;;;;;4957740;28;20047;-75
2024/01/30 12:30:25;;;;;;;16.63;7.68;;;;;;;;;;4957645;28;20458;-75
2024/01/30 12:32:51;;;;;;;16.90;7.85;;;;;;;;;;4975215;28;20043;-75
2024/01/30 12:35:18;;;;;;;15.32;7.25;;;;;;;;;;4959602;28;20098;-74
2024/01/30 12:37:44;;;;;;;17.05;8.05;;;;;;;;;;4978865;28;20458;-73
2024/01/30 12:40:19;;;;;;;13.02;5.97;;;;;;;;;;4961158;28;20057;-74
2024/01/30 12:42:50;;;;;;;17.95;7.43;;;;;;;;;;4978461;28;20046;-73
2024/01/30 12:45:20;;;;;;;15.05;6.38;;;;;;;;;;4961277;28;20050;-74
2024/01/30 12:47:46;;;;;;;12.10;5.47;;;;;;;;;;4961969;28;20055;-74
2024/01/30 12:50:15;;;;;;;15.65;5.65;;;;;;;;;;4961282;28;20062;-74
2024/01/30 12:52:41;;;;;;;12.23;4.40;;;;;;;;;;4978371;28;20043;-74
2024/01/30 12:55:07;;;;;;;11.00;5.05;;;;;;;;;;4961782;28;20051;-74
2024/01/30 12:57:33;;;;;;;10.40;5.40;;;;;;;;;;4961221;28;20046;-74
2024/01/30 12:59:59;;;;;;;13.27;4.63;;;;;;;;;;4929603;28;20387;-74
2024/01/30 13:02:28;;;;;;;12.40;5.38;;;;;;;;;;4961249;28;20113;-74
2024/01/30 13:04:54;;;;;;;7.72;3.25;;;;;;;;;;4961209;28;20116;-73
2024/01/30 13:07:20;;;;;;;12.02;4.10;;;;;;;;;;4961125;28;20047;-73
2024/01/30 13:09:47;;;;;;;8.52;3.22;;;;;;;;;;4960438;28;20046;-74
2024/01/30 13:12:13;;;;;;;9.98;3.55;;;;;;;;;;4960830;28;20047;-73
2024/01/30 13:14:39;;;;;;;9.10;3.30;;;;;;;;;;4960995;28;20055;-74
2024/01/30 13:17:05;;;;;;;5.85;2.80;;;;;;;;;;4961277;28;20052;-75
2024/01/30 13:19:31;;;;;;;7.78;3.08;;;;;;;;;;4931395;28;20161;-74
2024/01/30 13:21:58;;;;;;;9.40;3.17;;;;;;;;;;4961178;28;20054;-75
2024/01/30 13:24:24;;;;;;;5.67;2.20;;;;;;;;;;4960569;28;20062;-73
2024/01/30 13:26:50;;;;;;;6.80;2.78;;;;;;;;;;4960681;28;20153;-74
2024/01/30 13:29:17;;;;;;;5.72;2.67;;;;;;;;;;4960447;28;20416;-74
2024/01/30 13:31:44;;;;;;;5.78;2.47;;;;;;;;;;4960433;28;20101;-75
2024/01/30 13:34:10;;;;;;;6.40;2.38;;;;;;;;;;4978176;28;20078;-74
2024/01/30 13:36:36;;;;;;;4.25;2.10;;;;;;;;;;4960340;28;20054;-75
2024/01/30 13:39:02;;;;;;;6.07;2.70;;;;;;;;;;4977026;28;20563;-77
2024/01/30 13:41:29;;;;;;;9.25;3.40;;;;;;;;;;4960020;28;20505;-74
2024/01/30 13:43:56;;;;;;;5.45;2.00;;;;;;;;;;4978014;28;20053;-74
2024/01/30 13:46:22;;;;;;;5.70;2.33;;;;;;;;;;4959308;28;20082;-73
2024/01/30 13:48:48;;;;;;;5.65;2.33;;;;;;;;;;4977812;28;20403;-75
2024/01/30 13:51:16;;;;;;;8.10;1.92;;;;;;;;;;4960546;28;20054;-74
2024/01/30 13:53:42;;;;;;;5.78;1.90;;;;;;;;;;4976938;28;20480;-74
2024/01/30 13:56:08;;;;;;;6.93;2.00;;;;;;;;;;4977112;28;20047;-76
2024/01/30 13:58:36;;;;;;;6.53;1.73;;;;;;;;;;4960427;28;20050;-75
2024/01/30 14:01:02;;;;;;;;;;;;;;;;;;4961043;28;20043;-75
2024/01/30 14:03:28;;;;;;;3.97;1.10;;;;;;;;;;4959752;28;20268;-74
2024/01/30 14:05:55;;;;;;;5.18;1.05;;;;;;;;;;4944827;28;20058;-74
2024/01/30 14:08:23;;;;;;;2.80;0.70;;;;;;;;;;4976778;28;20491;-74
2024/01/30 14:10:50;;;;;;;3.35;0.90;;;;;;;;;;4959835;28;20069;-74
2024/01/30 14:13:16;;;;;;;4.68;0.90;;;;;;;;;;4959371;28;20047;-73
2024/01/30 14:15:42;;;;;;;3.53;0.80;;;;;;;;;;4959218;28;20079;-75
2024/01/30 14:18:08;;;;;;;3.63;0.90;;;;;;;;;;4928425;28;20097;-75
2024/01/30 14:20:35;;;;;;;5.22;0.90;;;;;;;;;;4976897;28;20130;-74
2024/01/30 14:23:01;;;;;;;3.30;1.00;;;;;;;;;;4960661;28;20471;-75